MSC Bettina — HPFG — position and weather

sailwx.info

Track history (hours):
 
Tides and Currents Weather Stations Pressure Air Temp Water Temp Dewpoint Dewpoint Depression Visibility Wind Speed Wind Dir Waves Ship Positions

MSC Bettina

Last reported at 2014-Jul-19 10:33 UTC. Time now 2014-Jul-23 03:43 UTC.
Position N 01°11' E 103°35'.

Length 366 m; draft 15.1 m.

Type: Ship (hazmat cat A). MMSI: 352361000.

Date/timePositionNaut miles runAvg speedWind from/ knotsBaromVisibWave heightAir tempDewpointWater temp
2014-Jul-19 10:33N 01°11' E 103°35'1312.9
2014-Jul-19 09:33N 01°10' E 103°48'6 6.0
2014-Jul-19 08:33N 01°16' E 103°46'0 0.1
2014-Jul-19 07:28N 01°16' E 103°46'0 0.0
2014-Jul-19 06:28N 01°16' E 103°46'0 0.0
2014-Jul-19 05:31N 01°16' E 103°46'0 0.0
2014-Jul-19 04:31N 01°16' E 103°46'0 0.0
2014-Jul-19 03:28N 01°16' E 103°46'0 0.0
2014-Jul-19 02:28N 01°16' E 103°46'0 0.0
2014-Jul-19 01:28N 01°16' E 103°46'0 0.0
2014-Jul-19 00:28N 01°16' E 103°46'0 0.0
2014-Jul-18 23:28N 01°16' E 103°46'0 0.0
2014-Jul-18 22:28N 01°16' E 103°46'0 0.0
2014-Jul-18 21:22N 01°16' E 103°46'0 0.0
2014-Jul-18 20:28N 01°16' E 103°46'0 0.0
2014-Jul-18 19:28N 01°16' E 103°46'0 0.0
2014-Jul-18 18:31N 01°16' E 103°46'0 0.0
2014-Jul-18 17:28N 01°16' E 103°46'0 0.0
2014-Jul-18 16:31N 01°16' E 103°46'0 0.0
2014-Jul-18 15:28N 01°16' E 103°46'0 0.0
2014-Jul-18 14:31N 01°16' E 103°46'0 0.0
2014-Jul-18 13:31N 01°16' E 103°46'0 0.0
2014-Jul-18 12:31N 01°16' E 103°46'0 0.0
2014-Jul-18 11:28N 01°16' E 103°46'0 0.0
2014-Jul-18 10:28N 01°16' E 103°46'0 0.0
2014-Jul-18 08:22N 01°16' E 103°46'0 0.0
2014-Jul-18 07:16N 01°16' E 103°46'9 0.5
2014-Jul-17 13:20N 01°14' E 103°54'5 6.6
2014-Jul-17 12:33N 01°15' E 103°59'9 8.4
2014-Jul-17 11:33N 01°16' E 104°08'  
2014-Jul-13 11:33N 24°54' E 120°08'1717.1
2014-Jul-13 10:33N 25°05' E 120°22'1716.6
2014-Jul-13 09:33N 25°16' E 120°36'1616.4
2014-Jul-13 08:33N 25°27' E 120°49'1615.7
2014-Jul-13 07:33N 25°37' E 121°02'25714.3
2014-Jul-12 13:33N 29°40' E 122°38'1616.0
2014-Jul-12 12:33N 29°44' E 122°20'9 9.0
2014-Jul-12 11:33N 29°50' E 122°13'9 9.1
2014-Jul-12 10:33N 29°54' E 122°03'1 0.9
2014-Jul-12 09:33N 29°54' E 122°02'0 0.0
2014-Jul-12 08:33N 29°54' E 122°02'0 0.0
2014-Jul-12 07:33N 29°54' E 122°02'0 0.0
2014-Jul-12 06:33N 29°54' E 122°02'0 0.0
2014-Jul-12 05:33N 29°54' E 122°02'0 0.0
2014-Jul-12 04:33N 29°54' E 122°02'0 0.0
2014-Jul-12 03:33N 29°54' E 122°02'0 0.0
2014-Jul-12 02:33N 29°54' E 122°02'0 0.0
2014-Jul-12 01:33N 29°54' E 122°02'0 0.0
2014-Jul-12 00:33N 29°54' E 122°02'0 0.0
2014-Jul-11 23:33N 29°54' E 122°02'0 0.0
2014-Jul-11 22:33N 29°54' E 122°02'0 0.0
2014-Jul-11 21:34N 29°54' E 122°02'0 0.0
2014-Jul-11 20:33N 29°54' E 122°02'0 0.0
2014-Jul-11 19:33N 29°54' E 122°02'0 0.0
2014-Jul-11 18:33N 29°54' E 122°02'0 0.0
2014-Jul-11 17:33N 29°54' E 122°02'0 0.0
2014-Jul-11 16:33N 29°54' E 122°02'0 0.0
2014-Jul-11 15:34N 29°54' E 122°02'0 0.0
2014-Jul-11 14:33N 29°54' E 122°02'0 0.0
2014-Jul-11 13:33N 29°54' E 122°02'0 0.0
2014-Jul-11 12:33N 29°54' E 122°02'0 0.0
2014-Jul-11 11:33N 29°54' E 122°02'0 0.1
2014-Jul-11 10:33N 29°54' E 122°02'6 6.1
2014-Jul-11 09:34N 29°56' E 122°09'1212.1
2014-Jul-11 08:33N 29°46' E 122°18'5 5.3
2014-Jul-11 07:33N 29°43' E 122°23'5 4.7
2014-Jul-11 06:30N 29°39' E 122°25'0 0.0
2014-Jul-11 05:30N 29°39' E 122°25'0 0.1
2014-Jul-11 04:24N 29°39' E 122°25'0 0.1
2014-Jul-11 03:30N 29°39' E 122°25'0 0.1
2014-Jul-11 02:24N 29°39' E 122°25'0 0.1
2014-Jul-11 01:30N 29°39' E 122°25'1 1.1
2014-Jul-11 00:33N 29°40' E 122°25'1110.5
2014-Jul-10 23:33N 29°42' E 122°37'1211.8
2014-Jul-10 22:33N 29°49' E 122°48'1111.0
2014-Jul-10 21:34N 29°56' E 122°58'1010.2
2014-Jul-10 20:33N 30°04' E 123°05'1110.9
2014-Jul-10 19:33N 30°15' E 123°01'1313.2
2014-Jul-10 18:33N 30°24' E 122°50'1514.8
2014-Jul-10 17:33N 30°30' E 122°35'1616.0
2014-Jul-10 16:34N 30°33' E 122°17'1110.6
2014-Jul-10 15:33N 30°36' E 122°05'0 0.0
2014-Jul-10 14:16N 30°36' E 122°05'0 0.0
2014-Jul-10 13:28N 30°36' E 122°05'0 0.0
2014-Jul-10 11:09N 30°36' E 122°05'0 0.0
2014-Jul-10 09:27N 30°36' E 122°05'0 0.0
2014-Jul-10 08:09N 30°36' E 122°05'0 0.0
2014-Jul-10 07:27N 30°36' E 122°05'0 0.0
2014-Jul-10 06:33N 30°36' E 122°05'0 0.0
2014-Jul-10 04:15N 30°36' E 122°05'0 0.0
2014-Jul-10 03:15N 30°36' E 122°05'0 0.1
2014-Jul-10 02:26N 30°36' E 122°05'0 0.0
2014-Jul-10 00:26N 30°36' E 122°05'0 0.0
2014-Jul-09 22:22N 30°36' E 122°05'0 0.0
2014-Jul-09 21:28N 30°36' E 122°05'0 0.0
2014-Jul-09 18:14N 30°36' E 122°05'0 0.0
2014-Jul-09 15:21N 30°36' E 122°05'0 0.1
2014-Jul-09 14:26N 30°36' E 122°05'6 6.7
2014-Jul-09 13:33N 30°34' E 122°11'6 6.4
2014-Jul-09 12:32N 30°32' E 122°18'6 6.4
2014-Jul-09 11:33N 30°32' E 122°26'8 8.0
2014-Jul-09 10:33N 30°32' E 122°35'  
Track history (hours):
 
Tides and Currents Weather Stations Pressure Air Temp Water Temp Dewpoint Dewpoint Depression Visibility Wind Speed Wind Dir Waves Ship Positions

MSC Bettina

Last reported at 2014-Jul-19 10:33 UTC. Time now 2014-Jul-23 03:43 UTC.
Position N 01°11' E 103°35'.

Length 366 m; draft 15.1 m.

Type: Ship (hazmat cat A). MMSI: 352361000.

Date/timePositionNaut miles runAvg speedWind from/ knotsBaromVisibWave heightAir tempDewpointWater temp
2014-Jul-19 10:33N 01°11' E 103°35'1312.9
2014-Jul-19 09:33N 01°10' E 103°48'6 6.0
2014-Jul-19 08:33N 01°16' E 103°46'0 0.1
2014-Jul-19 07:28N 01°16' E 103°46'0 0.0
2014-Jul-19 06:28N 01°16' E 103°46'0 0.0
2014-Jul-19 05:31N 01°16' E 103°46'0 0.0
2014-Jul-19 04:31N 01°16' E 103°46'0 0.0
2014-Jul-19 03:28N 01°16' E 103°46'0 0.0
2014-Jul-19 02:28N 01°16' E 103°46'0 0.0
2014-Jul-19 01:28N 01°16' E 103°46'0 0.0
2014-Jul-19 00:28N 01°16' E 103°46'0 0.0
2014-Jul-18 23:28N 01°16' E 103°46'0 0.0
2014-Jul-18 22:28N 01°16' E 103°46'0 0.0
2014-Jul-18 21:22N 01°16' E 103°46'0 0.0
2014-Jul-18 20:28N 01°16' E 103°46'0 0.0
2014-Jul-18 19:28N 01°16' E 103°46'0 0.0
2014-Jul-18 18:31N 01°16' E 103°46'0 0.0
2014-Jul-18 17:28N 01°16' E 103°46'0 0.0
2014-Jul-18 16:31N 01°16' E 103°46'0 0.0
2014-Jul-18 15:28N 01°16' E 103°46'0 0.0
2014-Jul-18 14:31N 01°16' E 103°46'0 0.0
2014-Jul-18 13:31N 01°16' E 103°46'0 0.0
2014-Jul-18 12:31N 01°16' E 103°46'0 0.0
2014-Jul-18 11:28N 01°16' E 103°46'0 0.0
2014-Jul-18 10:28N 01°16' E 103°46'0 0.0
2014-Jul-18 08:22N 01°16' E 103°46'0 0.0
2014-Jul-18 07:16N 01°16' E 103°46'9 0.5
2014-Jul-17 13:20N 01°14' E 103°54'5 6.6
2014-Jul-17 12:33N 01°15' E 103°59'9 8.4
2014-Jul-17 11:33N 01°16' E 104°08'  
2014-Jul-13 11:33N 24°54' E 120°08'1717.1
2014-Jul-13 10:33N 25°05' E 120°22'1716.6
2014-Jul-13 09:33N 25°16' E 120°36'1616.4
2014-Jul-13 08:33N 25°27' E 120°49'1615.7
2014-Jul-13 07:33N 25°37' E 121°02'25714.3
2014-Jul-12 13:33N 29°40' E 122°38'1616.0
2014-Jul-12 12:33N 29°44' E 122°20'9 9.0
2014-Jul-12 11:33N 29°50' E 122°13'9 9.1
2014-Jul-12 10:33N 29°54' E 122°03'1 0.9
2014-Jul-12 09:33N 29°54' E 122°02'0 0.0
2014-Jul-12 08:33N 29°54' E 122°02'0 0.0
2014-Jul-12 07:33N 29°54' E 122°02'0 0.0
2014-Jul-12 06:33N 29°54' E 122°02'0 0.0
2014-Jul-12 05:33N 29°54' E 122°02'0 0.0
2014-Jul-12 04:33N 29°54' E 122°02'0 0.0
2014-Jul-12 03:33N 29°54' E 122°02'0 0.0
2014-Jul-12 02:33N 29°54' E 122°02'0 0.0
2014-Jul-12 01:33N 29°54' E 122°02'0 0.0
2014-Jul-12 00:33N 29°54' E 122°02'0 0.0
2014-Jul-11 23:33N 29°54' E 122°02'0 0.0
2014-Jul-11 22:33N 29°54' E 122°02'0 0.0
2014-Jul-11 21:34N 29°54' E 122°02'0 0.0
2014-Jul-11 20:33N 29°54' E 122°02'0 0.0
2014-Jul-11 19:33N 29°54' E 122°02'0 0.0
2014-Jul-11 18:33N 29°54' E 122°02'0 0.0
2014-Jul-11 17:33N 29°54' E 122°02'0 0.0
2014-Jul-11 16:33N 29°54' E 122°02'0 0.0
2014-Jul-11 15:34N 29°54' E 122°02'0 0.0
2014-Jul-11 14:33N 29°54' E 122°02'0 0.0
2014-Jul-11 13:33N 29°54' E 122°02'0 0.0
2014-Jul-11 12:33N 29°54' E 122°02'0 0.0
2014-Jul-11 11:33N 29°54' E 122°02'0 0.1
2014-Jul-11 10:33N 29°54' E 122°02'6 6.1
2014-Jul-11 09:34N 29°56' E 122°09'1212.1
2014-Jul-11 08:33N 29°46' E 122°18'5 5.3
2014-Jul-11 07:33N 29°43' E 122°23'5 4.7
2014-Jul-11 06:30N 29°39' E 122°25'0 0.0
2014-Jul-11 05:30N 29°39' E 122°25'0 0.1
2014-Jul-11 04:24N 29°39' E 122°25'0 0.1
2014-Jul-11 03:30N 29°39' E 122°25'0 0.1
2014-Jul-11 02:24N 29°39' E 122°25'0 0.1
2014-Jul-11 01:30N 29°39' E 122°25'1 1.1
2014-Jul-11 00:33N 29°40' E 122°25'1110.5
2014-Jul-10 23:33N 29°42' E 122°37'1211.8
2014-Jul-10 22:33N 29°49' E 122°48'1111.0
2014-Jul-10 21:34N 29°56' E 122°58'1010.2
2014-Jul-10 20:33N 30°04' E 123°05'1110.9
2014-Jul-10 19:33N 30°15' E 123°01'1313.2
2014-Jul-10 18:33N 30°24' E 122°50'1514.8
2014-Jul-10 17:33N 30°30' E 122°35'1616.0
2014-Jul-10 16:34N 30°33' E 122°17'1110.6
2014-Jul-10 15:33N 30°36' E 122°05'0 0.0
2014-Jul-10 14:16N 30°36' E 122°05'0 0.0
2014-Jul-10 13:28N 30°36' E 122°05'0 0.0
2014-Jul-10 11:09N 30°36' E 122°05'0 0.0
2014-Jul-10 09:27N 30°36' E 122°05'0 0.0
2014-Jul-10 08:09N 30°36' E 122°05'0 0.0
2014-Jul-10 07:27N 30°36' E 122°05'0 0.0
2014-Jul-10 06:33N 30°36' E 122°05'0 0.0
2014-Jul-10 04:15N 30°36' E 122°05'0 0.0
2014-Jul-10 03:15N 30°36' E 122°05'0 0.1
2014-Jul-10 02:26N 30°36' E 122°05'0 0.0
2014-Jul-10 00:26N 30°36' E 122°05'0 0.0
2014-Jul-09 22:22N 30°36' E 122°05'0 0.0
2014-Jul-09 21:28N 30°36' E 122°05'0 0.0
2014-Jul-09 18:14N 30°36' E 122°05'0 0.0
2014-Jul-09 15:21N 30°36' E 122°05'0 0.1
2014-Jul-09 14:26N 30°36' E 122°05'6 6.7
2014-Jul-09 13:33N 30°34' E 122°11'6 6.4
2014-Jul-09 12:32N 30°32' E 122°18'6 6.4
2014-Jul-09 11:33N 30°32' E 122°26'8 8.0
2014-Jul-09 10:33N 30°32' E 122°35'  

Dump ship's entire track history